Time;durP1;ratioP1;P1;durP2;ratioP2;P2;SDS_P1;SDS_P2;PMS_P1;PMS_P2;Temp;Humidity;BMP_temperature;BMP_pressure;BME280_temperature;BME280_humidity;BME280_pressure;Samples;Min_cycle;Max_cycle;Signal;HPM_P1;HPM_P2
2022/04/28 07:40:17;;;;;;;4.28;1.48;;;;;;;;;;5087721;27;21264;-79
2022/04/28 07:42:44;;;;;;;11.23;1.95;;;;;;;;;;5084198;28;20502;-79
2022/04/28 07:45:10;;;;;;;2.28;1.50;;;;;;;;;;5084169;28;20047;-80
2022/04/28 07:47:39;;;;;;;5.70;2.22;;;;;;;;;;5067889;28;20388;-78
2022/04/28 07:50:05;;;;;;;5.75;1.60;;;;;;;;;;5067502;28;20051;-78
2022/04/28 07:52:31;;;;;;;5.90;1.70;;;;;;;;;;5067241;28;20075;-78
2022/04/28 07:54:57;;;;;;;4.78;1.77;;;;;;;;;;5067823;28;20124;-78
2022/04/28 07:57:23;;;;;;;3.72;1.33;;;;;;;;;;5067139;28;20185;-74
2022/04/28 07:59:50;;;;;;;3.40;1.38;;;;;;;;;;5084621;28;20485;-79
2022/04/28 08:02:16;;;;;;;7.25;2.22;;;;;;;;;;5067490;28;20071;-76
2022/04/28 08:04:42;;;;;;;3.20;1.63;;;;;;;;;;5067742;28;20515;-78
2022/04/28 08:07:08;;;;;;;3.85;1.67;;;;;;;;;;5084866;28;20051;-76
2022/04/28 08:09:35;;;;;;;5.07;1.80;;;;;;;;;;5065824;28;20545;-79
2022/04/28 08:12:01;;;;;;;4.57;1.77;;;;;;;;;;5066838;28;20048;-78
2022/04/28 08:14:27;;;;;;;6.00;1.73;;;;;;;;;;5067028;28;20051;-76
2022/04/28 08:16:53;;;;;;;7.45;2.10;;;;;;;;;;5067086;28;20097;-79
2022/04/28 08:19:19;;;;;;;2.55;1.80;;;;;;;;;;5066110;28;20040;-75
2022/04/28 08:21:46;;;;;;;3.42;1.88;;;;;;;;;;5066853;28;20044;-74
2022/04/28 08:24:12;;;;;;;6.32;1.90;;;;;;;;;;5066519;28;20040;-81
2022/04/28 08:26:38;;;;;;;2.78;1.50;;;;;;;;;;5067293;28;20036;-79
2022/04/28 08:29:04;;;;;;;2.58;1.70;;;;;;;;;;5066606;28;20052;-74
2022/04/28 08:31:30;;;;;;;4.43;1.85;;;;;;;;;;5083124;28;20643;-80
2022/04/28 08:33:56;;;;;;;7.07;2.17;;;;;;;;;;5066780;28;20040;-76
2022/04/28 08:36:22;;;;;;;4.65;1.58;;;;;;;;;;5066015;28;20122;-80
2022/04/28 08:38:49;;;;;;;4.55;1.65;;;;;;;;;;5065916;28;20067;-75
2022/04/28 08:41:20;;;;;;;2.90;1.50;;;;;;;;;;5066367;28;20042;-74
2022/04/28 08:43:47;;;;;;;4.03;1.40;;;;;;;;;;5065943;28;20042;-77
2022/04/28 08:48:58;;;;;;;3.22;1.83;;;;;;;;;;5081560;28;20446;-81
2022/04/28 08:51:25;;;;;;;2.90;1.63;;;;;;;;;;5053657;28;20063;-76
2022/04/28 08:53:52;;;;;;;9.35;2.13;;;;;;;;;;5066387;28;20503;-78
2022/04/28 08:56:24;;;;;;;2.60;2.10;;;;;;;;;;5052320;28;20384;-82
2022/04/28 08:58:50;;;;;;;5.88;2.13;;;;;;;;;;5052596;28;20037;-76
2022/04/28 09:01:16;;;;;;;5.82;2.55;;;;;;;;;;5052822;28;20043;-80
2022/04/28 09:03:42;;;;;;;4.43;2.35;;;;;;;;;;5052454;28;20036;-79
2022/04/28 09:06:19;;;;;;;7.43;2.22;;;;;;;;;;5069713;28;20043;-76
2022/04/28 09:08:45;;;;;;;2.55;1.95;;;;;;;;;;5068754;28;20548;-78
2022/04/28 09:11:21;;;;;;;4.97;2.05;;;;;;;;;;5052892;28;20044;-80
2022/04/28 09:14:11;;;;;;;3.92;1.88;;;;;;;;;;5053052;28;20516;-78
2022/04/28 09:16:58;;;;;;;4.47;2.08;;;;;;;;;;5052234;28;20399;-78
2022/04/28 09:19:27;;;;;;;5.93;2.78;;;;;;;;;;5051433;28;20049;-74
2022/04/28 09:21:56;;;;;;;4.22;2.40;;;;;;;;;;5052596;28;20032;-80
2022/04/28 09:24:23;;;;;;;6.68;2.40;;;;;;;;;;5052279;28;20472;-78
2022/04/28 09:26:51;;;;;;;4.05;2.45;;;;;;;;;;5051835;28;20396;-78
2022/04/28 09:29:18;;;;;;;7.60;2.13;;;;;;;;;;5051646;28;20447;-77
2022/04/28 09:31:45;;;;;;;6.35;1.67;;;;;;;;;;5051722;28;20087;-77
2022/04/28 09:34:15;;;;;;;6.05;2.30;;;;;;;;;;5052485;28;20054;-79
2022/04/28 09:36:42;;;;;;;8.90;2.00;;;;;;;;;;5052273;28;20076;-78
2022/04/28 09:39:09;;;;;;;5.15;2.25;;;;;;;;;;5051977;28;20052;-76
2022/04/28 09:44:26;;;;;;;5.43;2.45;;;;;;;;;;5068351;28;20040;-80
2022/04/28 09:46:52;;;;;;;7.10;2.38;;;;;;;;;;5052125;28;20496;-76
2022/04/28 09:49:21;;;;;;;9.18;3.55;;;;;;;;;;5068832;28;20044;-75
2022/04/28 09:51:48;;;;;;;5.78;3.10;;;;;;;;;;5052531;28;20178;-76
2022/04/28 09:54:16;;;;;;;9.07;3.10;;;;;;;;;;5053797;28;20450;-75
2022/04/28 09:56:44;;;;;;;6.90;2.92;;;;;;;;;;5054483;28;20052;-76
2022/04/28 09:59:13;;;;;;;10.45;3.20;;;;;;;;;;5054163;28;20041;-79
2022/04/28 10:01:39;;;;;;;6.90;3.00;;;;;;;;;;5052125;28;20044;-76
2022/04/28 10:04:06;;;;;;;5.93;3.38;;;;;;;;;;5067433;28;20044;-79
2022/04/28 10:06:34;;;;;;;6.82;3.17;;;;;;;;;;5068387;28;20504;-74
2022/04/28 10:09:03;;;;;;;6.95;3.47;;;;;;;;;;5068872;28;20060;-78
2022/04/28 10:11:29;;;;;;;8.90;3.67;;;;;;;;;;5051844;28;20412;-78
2022/04/28 10:13:56;;;;;;;6.75;3.95;;;;;;;;;;5051731;28;20456;-80
2022/04/28 10:16:23;;;;;;;4.03;3.28;;;;;;;;;;5051727;28;20680;-80
2022/04/28 10:18:52;;;;;;;5.10;3.38;;;;;;;;;;5051200;28;20117;-79
2022/04/28 10:21:21;;;;;;;6.50;3.75;;;;;;;;;;5053889;28;20358;-75
2022/04/28 10:32:23;;;;;;;8.60;3.50;;;;;;;;;;5064190;28;20060;-75
2022/04/28 10:35:08;;;;;;;4.70;3.35;;;;;;;;;;5048495;28;20040;-78
2022/04/28 10:37:35;;;;;;;5.57;3.00;;;;;;;;;;5065776;28;20052;-79
2022/04/28 10:40:01;;;;;;;7.05;3.53;;;;;;;;;;5050051;28;20447;-78
2022/04/28 10:42:27;;;;;;;5.43;2.90;;;;;;;;;;5050734;28;20055;-81
2022/04/28 10:44:55;;;;;;;7.78;3.53;;;;;;;;;;5066889;28;20188;-79
2022/04/28 10:47:34;;;;;;;6.38;2.85;;;;;;;;;;5050613;28;20488;-86
2022/04/28 10:50:00;;;;;;;5.13;3.00;;;;;;;;;;5067315;28;20132;-77
2022/04/28 10:52:27;;;;;;;7.93;2.70;;;;;;;;;;5050931;28;20043;-72
2022/04/28 10:54:54;;;;;;;7.95;3.10;;;;;;;;;;5049634;28;20064;-81
2022/04/28 10:57:28;;;;;;;6.03;2.33;;;;;;;;;;5053083;28;20045;-77
2022/04/28 10:59:56;;;;;;;7.13;2.63;;;;;;;;;;5066548;28;20268;-77
2022/04/28 11:02:23;;;;;;;4.90;2.25;;;;;;;;;;5066480;28;20515;-77
2022/04/28 11:04:52;;;;;;;6.05;2.60;;;;;;;;;;5065818;28;20040;-76
2022/04/28 11:07:21;;;;;;;8.77;2.83;;;;;;;;;;5049310;28;20488;-77
2022/04/28 11:09:57;;;;;;;6.50;2.88;;;;;;;;;;5031752;28;20135;-80
2022/04/28 11:12:23;;;;;;;9.38;2.40;;;;;;;;;;5049999;28;20579;-77
2022/04/28 11:14:49;;;;;;;7.88;2.60;;;;;;;;;;5050071;28;20075;-74
2022/04/28 11:17:16;;;;;;;4.00;2.50;;;;;;;;;;5067046;28;20087;-79
2022/04/28 11:19:44;;;;;;;6.18;3.22;;;;;;;;;;5049920;28;20044;-80
2022/04/28 11:22:13;;;;;;;4.97;2.63;;;;;;;;;;5050179;28;20551;-77
2022/04/28 11:24:47;;;;;;;7.55;2.75;;;;;;;;;;5051307;28;20044;-82
2022/04/28 11:27:19;;;;;;;10.88;3.45;;;;;;;;;;5051498;28;20298;-80
2022/04/28 11:29:46;;;;;;;9.10;2.75;;;;;;;;;;5063831;28;20467;-82
2022/04/28 11:32:13;;;;;;;9.60;2.95;;;;;;;;;;5049943;28;20094;-78
2022/04/28 11:34:40;;;;;;;5.47;2.70;;;;;;;;;;5033222;28;20041;-79
2022/04/28 11:37:17;;;;;;;6.63;3.42;;;;;;;;;;5031255;28;20389;-77
2022/04/28 11:39:47;;;;;;;10.20;2.67;;;;;;;;;;5063529;28;20164;-80
2022/04/28 11:42:16;;;;;;;9.80;2.80;;;;;;;;;;5050373;28;20261;-78
2022/04/28 11:44:51;;;;;;;7.65;2.50;;;;;;;;;;5067027;28;20055;-77
2022/04/28 11:47:17;;;;;;;8.35;2.63;;;;;;;;;;5066742;28;20707;-82
2022/04/28 11:49:43;;;;;;;9.73;2.65;;;;;;;;;;5066403;28;20331;-76
2022/04/28 11:52:23;;;;;;;6.18;3.03;;;;;;;;;;5050768;28;20489;-76
2022/04/28 11:54:57;;;;;;;5.85;2.90;;;;;;;;;;5052067;28;20042;-74
2022/04/28 11:57:23;;;;;;;4.07;2.65;;;;;;;;;;5072013;28;20102;-80
2022/04/28 11:59:49;;;;;;;7.72;2.97;;;;;;;;;;5054394;28;20362;-77
2022/04/28 12:02:30;;;;;;;7.47;2.90;;;;;;;;;;5055136;28;20048;-78
2022/04/28 12:05:00;;;;;;;5.18;2.90;;;;;;;;;;5054350;28;20079;-83
2022/04/28 12:07:30;;;;;;;6.38;2.58;;;;;;;;;;5053723;28;20040;-83
2022/04/28 12:15:27;;;;;;;6.22;3.10;;;;;;;;;;5070099;28;20581;-77
2022/04/28 12:20:38;;;;;;;11.10;3.25;;;;;;;;;;5070029;28;20048;-80
2022/04/28 12:23:04;;;;;;;6.68;2.88;;;;;;;;;;5053694;28;20504;-78
2022/04/28 12:25:33;;;;;;;9.35;3.55;;;;;;;;;;5054618;28;20048;-77
2022/04/28 12:28:00;;;;;;;6.95;3.40;;;;;;;;;;5058551;28;20678;-80
2022/04/28 12:30:26;;;;;;;3.97;3.03;;;;;;;;;;5074893;28;20547;-75
2022/04/28 12:32:56;;;;;;;4.53;2.92;;;;;;;;;;5058238;28;20400;-84
2022/04/28 12:35:23;;;;;;;7.20;2.88;;;;;;;;;;5058563;28;20040;-80
2022/04/28 12:37:58;;;;;;;6.03;3.22;;;;;;;;;;5058080;28;20048;-81
2022/04/28 12:40:25;;;;;;;9.30;3.20;;;;;;;;;;5074852;28;20055;-81
2022/04/28 12:42:51;;;;;;;9.05;3.15;;;;;;;;;;5058631;28;20040;-81
2022/04/28 12:45:36;;;;;;;3.30;2.58;;;;;;;;;;5074760;28;20071;-80
2022/04/28 12:48:02;;;;;;;5.63;2.65;;;;;;;;;;5058393;28;20037;-78
2022/04/28 12:50:28;;;;;;;6.20;3.25;;;;;;;;;;5058091;28;20368;-77
2022/04/28 12:52:56;;;;;;;7.45;3.03;;;;;;;;;;5074080;28;20048;-80
2022/04/28 12:55:22;;;;;;;4.72;2.92;;;;;;;;;;5074307;28;20500;-79
2022/04/28 12:57:49;;;;;;;6.72;2.83;;;;;;;;;;5041367;28;20044;-84
2022/04/28 13:00:18;;;;;;;9.23;3.05;;;;;;;;;;5074619;28;20102;-81
2022/04/28 13:02:48;;;;;;;5.43;2.65;;;;;;;;;;5057856;28;20106;-81
2022/04/28 13:05:15;;;;;;;3.42;2.25;;;;;;;;;;5057597;28;20047;-85
2022/04/28 13:07:41;;;;;;;5.00;2.60;;;;;;;;;;5057869;28;20040;-79
2022/04/28 13:10:10;;;;;;;9.98;3.28;;;;;;;;;;5057759;28;20076;-78
2022/04/28 13:12:36;;;;;;;2.35;2.15;;;;;;;;;;5074118;28;20488;-82
2022/04/28 13:15:03;;;;;;;5.30;2.63;;;;;;;;;;5073584;28;20044;-77
2022/04/28 13:17:29;;;;;;;6.68;2.78;;;;;;;;;;5057100;28;20089;-79
2022/04/28 13:19:55;;;;;;;5.05;2.33;;;;;;;;;;5074198;28;20067;-80
2022/04/28 13:22:21;;;;;;;5.22;2.35;;;;;;;;;;5073267;28;20488;-76
2022/04/28 13:24:47;;;;;;;6.13;2.60;;;;;;;;;;5056707;28;20036;-76
2022/04/28 13:27:14;;;;;;;5.78;3.30;;;;;;;;;;5057262;28;20775;-77
2022/04/28 13:29:40;;;;;;;6.32;2.60;;;;;;;;;;5057379;28;20045;-78
2022/04/28 13:32:08;;;;;;;5.40;2.53;;;;;;;;;;5056817;28;20099;-80
2022/04/28 13:34:35;;;;;;;7.90;2.65;;;;;;;;;;5056923;28;20090;-77
2022/04/28 13:37:01;;;;;;;10.05;2.80;;;;;;;;;;5073374;28;20397;-77
2022/04/28 13:39:27;;;;;;;2.95;2.20;;;;;;;;;;5073510;28;20052;-79
2022/04/28 13:41:53;;;;;;;9.77;3.58;;;;;;;;;;5055046;28;20040;-75
2022/04/28 13:44:19;;;;;;;6.60;3.20;;;;;;;;;;5055584;28;20397;-77
2022/04/28 13:46:46;;;;;;;6.07;2.30;;;;;;;;;;5072223;28;20548;-78
2022/04/28 13:49:12;;;;;;;5.50;3.00;;;;;;;;;;5072335;28;20154;-77
2022/04/28 13:51:38;;;;;;;5.18;2.28;;;;;;;;;;5054565;28;20068;-74
2022/04/28 13:54:04;;;;;;;9.18;3.10;;;;;;;;;;5054993;28;20063;-80
2022/04/28 13:56:30;;;;;;;8.52;2.25;;;;;;;;;;5055489;28;20040;-79
2022/04/28 13:58:56;;;;;;;4.72;2.72;;;;;;;;;;5071833;28;20098;-77
2022/04/28 14:01:22;;;;;;;7.82;2.55;;;;;;;;;;5072266;28;20036;-78
2022/04/28 14:03:48;;;;;;;2.60;2.03;;;;;;;;;;5056407;28;20101;-76
2022/04/28 14:06:15;;;;;;;6.47;2.38;;;;;;;;;;5056032;28;20063;-80
2022/04/28 14:08:41;;;;;;;5.07;2.67;;;;;;;;;;5055686;28;20033;-80
2022/04/28 14:11:08;;;;;;;10.57;2.72;;;;;;;;;;5054701;28;20424;-78
2022/04/28 14:13:34;;;;;;;5.40;2.85;;;;;;;;;;5054744;28;20044;-79
2022/04/28 14:16:00;;;;;;;7.65;2.42;;;;;;;;;;5071210;28;20044;-77
2022/04/28 14:18:26;;;;;;;3.33;2.03;;;;;;;;;;5070944;28;20080;-77
2022/04/28 14:20:54;;;;;;;4.55;2.40;;;;;;;;;;5054216;28;20051;-77
2022/04/28 14:23:21;;;;;;;7.20;2.17;;;;;;;;;;5054355;28;20028;-77
2022/04/28 14:25:46;;;;;;;5.03;2.33;;;;;;;;;;5070792;28;20523;-75
2022/04/28 14:28:12;;;;;;;2.63;2.25;;;;;;;;;;5071169;28;20032;-79
2022/04/28 14:30:41;;;;;;;4.13;2.15;;;;;;;;;;5054401;28;20102;-80
2022/04/28 14:33:07;;;;;;;7.28;2.55;;;;;;;;;;5053995;28;20440;-77
2022/04/28 14:35:34;;;;;;;7.35;3.20;;;;;;;;;;5070326;28;20078;-77
2022/04/28 14:38:01;;;;;;;6.82;2.03;;;;;;;;;;5053894;28;20047;-78
2022/04/28 14:40:29;;;;;;;5.95;2.10;;;;;;;;;;5070619;28;20051;-80
2022/04/28 14:42:55;;;;;;;6.25;2.45;;;;;;;;;;5070479;28;20043;-79
2022/04/28 14:45:21;;;;;;;4.47;1.95;;;;;;;;;;5070595;28;20029;-81
2022/04/28 14:47:47;;;;;;;4.28;2.25;;;;;;;;;;5053239;28;20041;-78
2022/04/28 14:52:59;;;;;;;7.28;2.90;;;;;;;;;;5070651;28;20052;-78
2022/04/28 14:55:25;;;;;;;3.25;1.63;;;;;;;;;;5070237;28;20127;-82
2022/04/28 14:57:52;;;;;;;6.70;2.17;;;;;;;;;;5070395;28;20448;-76
2022/04/28 15:00:19;;;;;;;2.63;1.70;;;;;;;;;;5053537;28;20039;-80
2022/04/28 15:02:47;;;;;;;4.30;2.00;;;;;;;;;;5070505;28;20040;-82
2022/04/28 15:05:13;;;;;;;5.75;1.83;;;;;;;;;;5054240;28;20032;-84
2022/04/28 15:07:39;;;;;;;5.35;2.80;;;;;;;;;;5054107;28;20037;-79
2022/04/28 15:10:06;;;;;;;5.40;2.17;;;;;;;;;;5054109;28;20047;-79
2022/04/28 15:12:32;;;;;;;4.85;2.38;;;;;;;;;;5070266;28;20070;-80
2022/04/28 15:15:01;;;;;;;3.58;2.17;;;;;;;;;;5053535;28;20047;-77
2022/04/28 15:17:30;;;;;;;4.88;2.08;;;;;;;;;;5053549;28;20043;-79
2022/04/28 15:19:56;;;;;;;4.28;2.05;;;;;;;;;;5066948;28;20037;-77
2022/04/28 15:22:22;;;;;;;8.50;3.13;;;;;;;;;;5070549;28;20075;-75
2022/04/28 15:24:48;;;;;;;4.88;2.30;;;;;;;;;;5049108;28;20166;-76
2022/04/28 15:27:14;;;;;;;6.05;2.78;;;;;;;;;;5067515;28;20052;-79
2022/04/28 15:29:41;;;;;;;5.65;2.38;;;;;;;;;;5049824;28;20135;-79
2022/04/28 15:32:07;;;;;;;4.43;2.47;;;;;;;;;;5050456;28;20037;-79
2022/04/28 15:34:33;;;;;;;6.50;2.58;;;;;;;;;;5051017;28;20684;-75
2022/04/28 15:37:01;;;;;;;4.18;1.90;;;;;;;;;;5070827;28;20169;-80
2022/04/28 15:39:27;;;;;;;3.28;1.83;;;;;;;;;;5053731;28;20052;-77
2022/04/28 15:41:55;;;;;;;4.88;2.30;;;;;;;;;;5049813;28;20395;-80
2022/04/28 15:44:21;;;;;;;5.32;2.17;;;;;;;;;;5050532;28;20036;-77
2022/04/28 15:46:47;;;;;;;3.80;2.15;;;;;;;;;;5050602;28;20106;-82
2022/04/28 15:49:13;;;;;;;7.55;2.30;;;;;;;;;;5050485;28;20471;-80
2022/04/28 15:51:39;;;;;;;2.85;2.28;;;;;;;;;;5050366;28;20040;-78
2022/04/28 15:54:06;;;;;;;7.72;2.67;;;;;;;;;;5052946;28;20530;-79
2022/04/28 15:56:33;;;;;;;4.40;2.00;;;;;;;;;;5050417;28;20448;-82
2022/04/28 15:58:59;;;;;;;4.57;2.28;;;;;;;;;;5049895;28;20048;-82
2022/04/28 16:01:25;;;;;;;7.45;2.47;;;;;;;;;;5053645;28;20100;-81
2022/04/28 16:03:51;;;;;;;3.13;2.55;;;;;;;;;;5054718;28;20040;-79
2022/04/28 16:06:17;;;;;;;4.75;1.98;;;;;;;;;;5071479;28;20060;-82
2022/04/28 16:08:43;;;;;;;3.63;1.73;;;;;;;;;;5055058;28;20478;-79
2022/04/28 16:11:10;;;;;;;11.60;3.25;;;;;;;;;;5071287;28;20044;-78
2022/04/28 16:13:36;;;;;;;5.07;2.17;;;;;;;;;;5037795;28;20379;-78
2022/04/28 16:16:03;;;;;;;3.75;2.03;;;;;;;;;;5071124;28;20365;-77
2022/04/28 16:18:29;;;;;;;2.53;1.80;;;;;;;;;;5054362;28;20048;-78
2022/04/28 16:20:55;;;;;;;4.57;2.22;;;;;;;;;;5070477;28;20056;-77
2022/04/28 16:23:21;;;;;;;5.28;2.10;;;;;;;;;;5053855;28;20044;-76
2022/04/28 16:25:48;;;;;;;6.53;2.05;;;;;;;;;;5054435;28;20571;-78
2022/04/28 16:28:14;;;;;;;2.35;1.65;;;;;;;;;;5053521;28;20040;-78
2022/04/28 16:30:41;;;;;;;3.75;2.45;;;;;;;;;;5070200;28;20039;-79
2022/04/28 16:33:07;;;;;;;6.13;1.83;;;;;;;;;;5053859;28;20305;-79
2022/04/28 16:35:33;;;;;;;3.25;1.60;;;;;;;;;;5070557;28;20048;-83
2022/04/28 16:38:01;;;;;;;2.95;1.92;;;;;;;;;;5070029;28;20044;-78
2022/04/28 16:40:29;;;;;;;3.20;1.83;;;;;;;;;;5053396;28;20048;-82
2022/04/28 16:42:55;;;;;;;5.03;2.58;;;;;;;;;;5070180;28;20561;-80
2022/04/28 16:45:21;;;;;;;3.53;1.55;;;;;;;;;;5069916;28;20036;-78
2022/04/28 16:47:48;;;;;;;3.90;1.75;;;;;;;;;;5053747;28;20471;-79
2022/04/28 16:50:14;;;;;;;2.28;1.92;;;;;;;;;;5053258;28;20049;-75
2022/04/28 16:52:40;;;;;;;1.42;1.30;;;;;;;;;;5053640;28;20109;-80
2022/04/28 16:55:10;;;;;;;2.90;1.88;;;;;;;;;;5069950;28;20068;-84
2022/04/28 16:57:37;;;;;;;5.22;2.03;;;;;;;;;;5053398;28;20176;-84
2022/04/28 17:00:06;;;;;;;3.65;1.73;;;;;;;;;;5069541;28;20056;-81
2022/04/28 17:04:13;;;;;;;3.10;1.98;;;;;;;;;;5053613;28;20369;-79
2022/04/28 17:05:20;;;;;;;3.75;1.80;;;;;;;;;;5069924;28;20083;-81
2022/04/28 17:07:46;;;;;;;2.72;1.65;;;;;;;;;;5053622;28;20551;-80
2022/04/28 17:10:13;;;;;;;5.35;2.38;;;;;;;;;;5070341;28;20072;-79
2022/04/28 17:12:40;;;;;;;12.27;2.60;;;;;;;;;;5053285;28;20048;-80
2022/04/28 17:15:06;;;;;;;4.38;2.03;;;;;;;;;;5050624;28;20041;-77
2022/04/28 17:17:33;;;;;;;6.10;1.77;;;;;;;;;;5045033;28;20093;-80
2022/04/28 17:19:59;;;;;;;6.97;1.95;;;;;;;;;;5052972;28;20117;-79
2022/04/28 17:22:25;;;;;;;4.50;2.55;;;;;;;;;;5053863;28;20036;-81
2022/04/28 17:24:51;;;;;;;6.35;1.40;;;;;;;;;;5052939;28;20420;-79
2022/04/28 17:27:18;;;;;;;3.20;1.75;;;;;;;;;;5052980;28;20480;-81
2022/04/28 17:29:44;;;;;;;4.45;1.77;;;;;;;;;;5052284;28;20043;-79
2022/04/28 17:32:12;;;;;;;4.78;1.45;;;;;;;;;;5069954;28;20396;-79
2022/04/28 17:34:40;;;;;;;3.00;1.77;;;;;;;;;;5053124;28;20408;-79
2022/04/28 17:37:06;;;;;;;4.38;1.70;;;;;;;;;;5054083;28;20048;-79
2022/04/28 17:39:33;;;;;;;4.65;1.50;;;;;;;;;;5055104;28;20080;-77
2022/04/28 17:41:59;;;;;;;2.17;1.30;;;;;;;;;;5055937;28;20521;-81
2022/04/28 17:44:25;;;;;;;4.25;1.73;;;;;;;;;;5056367;28;20036;-78
2022/04/28 17:46:54;;;;;;;4.82;1.88;;;;;;;;;;5056006;28;20041;-80
2022/04/28 17:49:20;;;;;;;5.32;2.13;;;;;;;;;;5072678;28;20095;-82
2022/04/28 17:51:46;;;;;;;4.38;1.98;;;;;;;;;;5055588;28;20126;-83
2022/04/28 17:54:13;;;;;;;4.15;1.50;;;;;;;;;;5072124;28;20052;-79
2022/04/28 17:59:53;;;;;;;;;;;;;;;;;;5073673;28;20045;-80
2022/04/28 18:02:19;;;;;;;6.80;1.90;;;;;;;;;;5055990;28;20361;-84
2022/04/28 18:04:45;;;;;;;7.38;1.80;;;;;;;;;;5039383;28;20037;-82
2022/04/28 18:07:12;;;;;;;6.82;2.28;;;;;;;;;;5055571;28;20426;-81
2022/04/28 18:09:39;;;;;;;4.75;2.13;;;;;;;;;;5055217;28;20043;-81
2022/04/28 18:12:05;;;;;;;3.85;2.15;;;;;;;;;;5055263;28;20412;-79
2022/04/28 18:14:31;;;;;;;2.05;1.85;;;;;;;;;;5055060;28;20047;-79
2022/04/28 18:16:57;;;;;;;3.50;1.73;;;;;;;;;;5054822;28;20036;-79
2022/04/28 18:19:24;;;;;;;4.20;1.80;;;;;;;;;;5054868;28;20075;-79
2022/04/28 18:21:50;;;;;;;3.35;2.63;;;;;;;;;;5071761;28;20036;-78
2022/04/28 18:24:16;;;;;;;8.35;2.60;;;;;;;;;;5054480;28;20090;-83
2022/04/28 18:26:44;;;;;;;4.50;2.90;;;;;;;;;;5055156;28;20032;-80
2022/04/28 18:29:11;;;;;;;3.22;2.33;;;;;;;;;;5054783;28;20051;-80
2022/04/28 18:31:37;;;;;;;6.25;3.60;;;;;;;;;;5054465;28;20488;-76
2022/04/28 18:34:03;;;;;;;9.57;3.55;;;;;;;;;;5054545;28;20040;-79
2022/04/28 18:44:43;;;;;;;9.60;2.80;;;;;;;;;;5070885;28;20045;-76
2022/04/28 18:47:09;;;;;;;4.18;2.50;;;;;;;;;;5071216;28;20041;-78
2022/04/28 18:49:38;;;;;;;5.35;2.80;;;;;;;;;;5054408;28;20044;-76
2022/04/28 18:52:04;;;;;;;10.38;2.92;;;;;;;;;;5054248;28;20040;-78
2022/04/28 18:54:31;;;;;;;4.93;2.33;;;;;;;;;;5037608;28;20131;-79
2022/04/28 18:57:00;;;;;;;7.35;2.60;;;;;;;;;;5054040;28;20040;-78
2022/04/28 18:59:31;;;;;;;4.50;2.85;;;;;;;;;;5070846;28;20048;-77
2022/04/28 19:01:57;;;;;;;11.48;3.08;;;;;;;;;;5053871;28;20076;-78
2022/04/28 19:04:25;;;;;;;4.35;2.53;;;;;;;;;;5070917;28;20536;-78
2022/04/28 19:06:52;;;;;;;4.40;2.95;;;;;;;;;;5070615;28;20190;-77
2022/04/28 19:09:18;;;;;;;5.22;3.00;;;;;;;;;;5054170;28;20045;-78
2022/04/28 19:11:44;;;;;;;6.00;3.30;;;;;;;;;;5053905;28;20043;-80
2022/04/28 19:16:55;;;;;;;4.88;2.80;;;;;;;;;;5070267;28;20048;-78
2022/04/28 19:19:24;;;;;;;10.05;2.83;;;;;;;;;;5053711;28;20055;-78
2022/04/28 19:21:54;;;;;;;3.72;2.88;;;;;;;;;;5070643;28;20175;-78
2022/04/28 19:24:20;;;;;;;3.75;2.88;;;;;;;;;;5070277;28;20503;-76
2022/04/28 19:26:46;;;;;;;4.10;2.90;;;;;;;;;;5053609;28;20395;-78
2022/04/28 19:29:12;;;;;;;6.32;2.75;;;;;;;;;;5053849;28;20094;-77
2022/04/28 19:31:38;;;;;;;5.22;3.20;;;;;;;;;;5053490;28;20040;-78
2022/04/28 19:34:05;;;;;;;8.68;3.35;;;;;;;;;;5070304;28;20090;-79
2022/04/28 19:36:33;;;;;;;10.02;3.88;;;;;;;;;;5053753;28;20097;-78
2022/04/28 19:38:59;;;;;;;7.50;3.35;;;;;;;;;;5055346;28;20048;-79
2022/04/28 19:41:25;;;;;;;7.50;3.55;;;;;;;;;;5053726;28;20102;-79
2022/04/28 19:43:52;;;;;;;7.32;3.53;;;;;;;;;;5053451;28;20155;-78
2022/04/28 19:46:18;;;;;;;11.57;3.60;;;;;;;;;;5053694;28;20040;-81
2022/04/28 19:48:44;;;;;;;7.00;3.65;;;;;;;;;;5053362;28;20036;-81
2022/04/28 19:51:10;;;;;;;10.27;4.47;;;;;;;;;;5070011;28;20045;-79
2022/04/28 19:53:36;;;;;;;5.43;3.58;;;;;;;;;;5053397;28;20135;-79
2022/04/28 19:56:04;;;;;;;8.15;3.63;;;;;;;;;;5053233;28;20044;-78
2022/04/28 19:58:30;;;;;;;7.30;3.22;;;;;;;;;;5053239;28;20403;-78
2022/04/28 20:00:56;;;;;;;6.20;3.20;;;;;;;;;;5053424;28;20124;-81
2022/04/28 20:03:22;;;;;;;6.90;3.17;;;;;;;;;;5053326;28;20404;-80
2022/04/28 20:05:48;;;;;;;8.57;4.03;;;;;;;;;;5069927;28;20040;-79
2022/04/28 20:08:15;;;;;;;8.55;3.03;;;;;;;;;;5053179;28;20533;-80
2022/04/28 20:10:41;;;;;;;6.35;3.38;;;;;;;;;;5053082;28;20040;-77
2022/04/28 20:13:10;;;;;;;7.63;3.30;;;;;;;;;;5053482;28;20040;-79
2022/04/28 20:15:38;;;;;;;6.18;3.90;;;;;;;;;;5053284;28;20041;-79
2022/04/28 20:18:05;;;;;;;8.65;4.35;;;;;;;;;;5053048;28;20069;-80
2022/04/28 20:20:31;;;;;;;7.75;4.22;;;;;;;;;;5052961;28;20044;-79
2022/04/28 20:22:58;;;;;;;8.52;3.63;;;;;;;;;;5053018;28;20135;-79
2022/04/28 20:25:24;;;;;;;10.98;4.82;;;;;;;;;;5052917;28;20036;-79
2022/04/28 20:27:50;;;;;;;11.23;4.03;;;;;;;;;;5053032;28;20040;-79
2022/04/28 20:30:17;;;;;;;9.27;3.95;;;;;;;;;;5069936;28;20044;-79
2022/04/28 20:32:44;;;;;;;13.75;4.80;;;;;;;;;;5053068;28;20411;-78
2022/04/28 20:35:11;;;;;;;13.95;4.78;;;;;;;;;;5052969;28;20381;-79
2022/04/28 20:37:37;;;;;;;9.60;4.90;;;;;;;;;;5053043;28;20056;-79
2022/04/28 20:40:07;;;;;;;9.35;5.00;;;;;;;;;;5069341;28;20060;-79
2022/04/28 20:42:33;;;;;;;15.45;5.72;;;;;;;;;;5052720;28;20459;-78
2022/04/28 20:44:59;;;;;;;13.02;4.85;;;;;;;;;;5052855;28;20044;-78
2022/04/28 20:47:25;;;;;;;12.57;4.50;;;;;;;;;;5055720;28;20040;-78
2022/04/28 20:49:53;;;;;;;12.23;4.15;;;;;;;;;;5056666;28;20051;-77
2022/04/28 20:52:21;;;;;;;12.20;4.65;;;;;;;;;;5056369;28;20381;-77
2022/04/28 20:54:51;;;;;;;8.30;4.80;;;;;;;;;;5056982;28;20041;-78
2022/04/28 20:57:22;;;;;;;9.05;4.30;;;;;;;;;;5056608;28;20594;-78
2022/04/28 20:59:48;;;;;;;;;;;;;;;;;;5056700;28;20047;-78
2022/04/28 21:02:14;;;;;;;4.47;3.08;;;;;;;;;;5056234;28;19999;-79
2022/04/28 21:04:41;;;;;;;8.73;3.75;;;;;;;;;;5056250;28;20123;-78
2022/04/28 21:07:07;;;;;;;11.32;3.67;;;;;;;;;;5056039;28;20072;-77
2022/04/28 21:09:33;;;;;;;5.68;3.50;;;;;;;;;;5056031;28;20553;-77
2022/04/28 21:12:00;;;;;;;12.98;4.97;;;;;;;;;;5056275;28;20185;-77
2022/04/28 21:14:26;;;;;;;12.40;4.93;;;;;;;;;;5072863;28;20041;-77
2022/04/28 21:16:52;;;;;;;8.55;4.97;;;;;;;;;;5056183;28;20090;-76
2022/04/28 21:19:18;;;;;;;8.27;4.13;;;;;;;;;;5071811;28;20037;-77
2022/04/28 21:21:44;;;;;;;9.73;4.65;;;;;;;;;;5054613;28;20060;-77
2022/04/28 21:24:10;;;;;;;7.70;4.70;;;;;;;;;;5052209;28;20404;-77
2022/04/28 21:26:36;;;;;;;11.07;4.65;;;;;;;;;;5051173;28;20036;-77
2022/04/28 21:29:02;;;;;;;8.38;4.78;;;;;;;;;;5067722;28;20563;-76
2022/04/28 21:31:28;;;;;;;6.78;4.20;;;;;;;;;;5068179;28;20032;-77
2022/04/28 21:33:55;;;;;;;9.43;3.90;;;;;;;;;;5051224;28;20032;-77
2022/04/28 21:36:23;;;;;;;7.15;4.28;;;;;;;;;;5048577;28;20480;-77
2022/04/28 21:38:50;;;;;;;14.02;4.72;;;;;;;;;;5050675;28;20044;-77
2022/04/28 21:41:16;;;;;;;7.20;3.80;;;;;;;;;;5050371;28;20094;-77
2022/04/28 21:43:42;;;;;;;5.63;3.65;;;;;;;;;;5050996;28;20032;-77
2022/04/28 21:46:08;;;;;;;5.90;3.38;;;;;;;;;;5067282;28;20072;-77
2022/04/28 21:48:34;;;;;;;7.22;3.58;;;;;;;;;;5050913;28;20480;-78
2022/04/28 21:51:01;;;;;;;8.30;3.45;;;;;;;;;;5050677;28;20492;-78
2022/04/28 21:53:27;;;;;;;6.50;3.00;;;;;;;;;;5052412;28;20373;-78
2022/04/28 21:55:53;;;;;;;10.02;4.07;;;;;;;;;;5050979;28;20089;-77
2022/04/28 21:58:20;;;;;;;10.45;4.03;;;;;;;;;;5054046;28;20501;-79
2022/04/28 22:00:48;;;;;;;7.40;3.35;;;;;;;;;;5053754;28;20571;-77
2022/04/28 22:11:11;;;;;;;8.38;3.42;;;;;;;;;;5067803;28;20033;-78
2022/04/28 22:11:30;;;;;;;9.00;3.78;;;;;;;;;;5070150;28;20238;-78
2022/04/28 22:13:56;;;;;;;9.68;3.25;;;;;;;;;;5054374;28;20143;-78
2022/04/28 22:16:22;;;;;;;8.98;3.40;;;;;;;;;;5054700;28;20064;-77
2022/04/28 22:18:48;;;;;;;8.52;3.13;;;;;;;;;;5054497;28;20041;-78
2022/04/28 22:21:14;;;;;;;9.18;3.17;;;;;;;;;;5054209;28;20037;-77
2022/04/28 22:23:41;;;;;;;5.43;3.35;;;;;;;;;;5054302;28;20388;-78
2022/04/28 22:26:07;;;;;;;8.82;3.15;;;;;;;;;;5054513;28;20546;-78
2022/04/28 22:28:33;;;;;;;6.90;3.15;;;;;;;;;;5054088;28;20032;-77
2022/04/28 22:30:59;;;;;;;7.25;2.70;;;;;;;;;;5070806;28;20045;-77
2022/04/28 22:33:25;;;;;;;5.85;2.67;;;;;;;;;;5050337;28;20106;-78
2022/04/28 22:35:51;;;;;;;9.98;2.88;;;;;;;;;;5050460;28;20036;-77
2022/04/28 22:38:21;;;;;;;16.33;3.13;;;;;;;;;;5047596;28;20044;-77
2022/04/28 22:40:47;;;;;;;9.68;2.97;;;;;;;;;;5050258;28;20571;-78
2022/04/28 22:43:13;;;;;;;8.10;2.72;;;;;;;;;;5067076;28;20072;-77
2022/04/28 22:45:40;;;;;;;6.75;2.67;;;;;;;;;;5067128;28;20590;-77
2022/04/28 22:48:08;;;;;;;6.43;2.88;;;;;;;;;;5049913;28;20037;-77
2022/04/28 22:50:34;;;;;;;3.10;2.17;;;;;;;;;;5067057;28;20040;-78
2022/04/28 22:53:00;;;;;;;7.68;3.25;;;;;;;;;;5050716;28;20508;-78
2022/04/28 22:55:26;;;;;;;5.10;2.70;;;;;;;;;;5050040;28;20040;-77
2022/04/28 22:57:52;;;;;;;5.18;2.50;;;;;;;;;;5050005;28;20040;-78
2022/04/28 23:00:19;;;;;;;4.63;2.50;;;;;;;;;;5066470;28;20081;-77
2022/04/28 23:02:46;;;;;;;10.00;3.13;;;;;;;;;;5050403;28;20520;-78
2022/04/28 23:05:12;;;;;;;7.65;3.10;;;;;;;;;;5066798;28;20101;-79
2022/04/28 23:07:38;;;;;;;7.10;3.13;;;;;;;;;;5050139;28;20131;-78